sensor_id;sensor_type;location;lat;lon;timestamp;P1;durP1;ratioP1;P2;durP2;ratioP2
12425;SDS011;6277;49.824;9.562;2024-02-14T00:01:48;2.45;;;1.63;;
12425;SDS011;6277;49.824;9.562;2024-02-14T00:04:14;3.78;;;1.50;;
12425;SDS011;6277;49.824;9.562;2024-02-14T00:06:39;2.80;;;1.48;;
12425;SDS011;6277;49.824;9.562;2024-02-14T00:09:05;2.15;;;1.40;;
12425;SDS011;6277;49.824;9.562;2024-02-14T00:11:32;2.17;;;1.20;;
12425;SDS011;6277;49.824;9.562;2024-02-14T00:13:57;2.65;;;1.40;;
12425;SDS011;6277;49.824;9.562;2024-02-14T00:16:25;2.35;;;1.30;;
12425;SDS011;6277;49.824;9.562;2024-02-14T00:18:50;2.35;;;1.52;;
12425;SDS011;6277;49.824;9.562;2024-02-14T00:21:16;3.03;;;1.40;;
12425;SDS011;6277;49.824;9.562;2024-02-14T00:23:41;2.60;;;1.33;;
12425;SDS011;6277;49.824;9.562;2024-02-14T00:26:07;2.70;;;1.50;;
12425;SDS011;6277;49.824;9.562;2024-02-14T00:28:32;2.00;;;1.27;;
12425;SDS011;6277;49.824;9.562;2024-02-14T00:30:58;2.10;;;1.10;;
12425;SDS011;6277;49.824;9.562;2024-02-14T00:33:24;2.72;;;1.42;;
12425;SDS011;6277;49.824;9.562;2024-02-14T00:35:49;2.97;;;1.52;;
12425;SDS011;6277;49.824;9.562;2024-02-14T00:38:15;2.90;;;1.33;;
12425;SDS011;6277;49.824;9.562;2024-02-14T00:40:41;3.72;;;1.70;;
12425;SDS011;6277;49.824;9.562;2024-02-14T00:43:06;3.30;;;1.70;;
12425;SDS011;6277;49.824;9.562;2024-02-14T00:45:32;3.10;;;1.63;;
12425;SDS011;6277;49.824;9.562;2024-02-14T00:47:57;2.00;;;1.30;;
12425;SDS011;6277;49.824;9.562;2024-02-14T00:50:23;2.60;;;1.38;;
12425;SDS011;6277;49.824;9.562;2024-02-14T00:52:48;2.67;;;1.17;;
12425;SDS011;6277;49.824;9.562;2024-02-14T00:55:14;2.83;;;1.38;;
12425;SDS011;6277;49.824;9.562;2024-02-14T00:57:40;2.50;;;1.42;;
12425;SDS011;6277;49.824;9.562;2024-02-14T01:00:06;2.33;;;1.42;;
12425;SDS011;6277;49.824;9.562;2024-02-14T01:02:32;2.55;;;1.40;;
12425;SDS011;6277;49.824;9.562;2024-02-14T01:04:57;2.00;;;1.13;;
12425;SDS011;6277;49.824;9.562;2024-02-14T01:07:23;2.05;;;1.17;;
12425;SDS011;6277;49.824;9.562;2024-02-14T01:09:48;1.65;;;1.13;;
12425;SDS011;6277;49.824;9.562;2024-02-14T01:12:14;1.33;;;1.00;;
12425;SDS011;6277;49.824;9.562;2024-02-14T01:14:40;3.03;;;1.40;;
12425;SDS011;6277;49.824;9.562;2024-02-14T01:17:06;2.03;;;1.08;;
12425;SDS011;6277;49.824;9.562;2024-02-14T01:19:33;2.08;;;1.35;;
12425;SDS011;6277;49.824;9.562;2024-02-14T01:21:58;2.17;;;1.23;;
12425;SDS011;6277;49.824;9.562;2024-02-14T01:24:24;2.35;;;1.33;;
12425;SDS011;6277;49.824;9.562;2024-02-14T01:26:54;3.40;;;1.40;;
12425;SDS011;6277;49.824;9.562;2024-02-14T01:29:20;3.08;;;1.73;;
12425;SDS011;6277;49.824;9.562;2024-02-14T01:31:45;2.63;;;1.50;;
12425;SDS011;6277;49.824;9.562;2024-02-14T01:34:11;2.33;;;1.38;;
12425;SDS011;6277;49.824;9.562;2024-02-14T01:36:36;1.83;;;1.38;;
12425;SDS011;6277;49.824;9.562;2024-02-14T01:39:03;2.42;;;1.40;;
12425;SDS011;6277;49.824;9.562;2024-02-14T01:41:32;1.98;;;1.50;;
12425;SDS011;6277;49.824;9.562;2024-02-14T01:43:58;2.20;;;1.70;;
12425;SDS011;6277;49.824;9.562;2024-02-14T01:46:24;3.55;;;1.50;;
12425;SDS011;6277;49.824;9.562;2024-02-14T01:48:50;2.47;;;1.52;;
12425;SDS011;6277;49.824;9.562;2024-02-14T01:51:16;2.38;;;1.27;;
12425;SDS011;6277;49.824;9.562;2024-02-14T01:53:44;2.83;;;1.40;;
12425;SDS011;6277;49.824;9.562;2024-02-14T01:56:10;2.42;;;1.45;;
12425;SDS011;6277;49.824;9.562;2024-02-14T01:58:37;3.97;;;1.40;;
12425;SDS011;6277;49.824;9.562;2024-02-14T02:01:03;2.28;;;1.30;;
12425;SDS011;6277;49.824;9.562;2024-02-14T02:03:29;2.10;;;1.30;;
12425;SDS011;6277;49.824;9.562;2024-02-14T02:06:00;3.63;;;1.58;;
12425;SDS011;6277;49.824;9.562;2024-02-14T02:08:26;1.88;;;1.25;;
12425;SDS011;6277;49.824;9.562;2024-02-14T02:10:51;2.33;;;1.48;;
12425;SDS011;6277;49.824;9.562;2024-02-14T02:13:17;2.13;;;1.52;;
12425;SDS011;6277;49.824;9.562;2024-02-14T02:15:42;2.42;;;1.45;;
12425;SDS011;6277;49.824;9.562;2024-02-14T02:18:11;3.83;;;1.90;;
12425;SDS011;6277;49.824;9.562;2024-02-14T02:20:38;2.22;;;1.40;;
12425;SDS011;6277;49.824;9.562;2024-02-14T02:23:03;2.25;;;1.45;;
12425;SDS011;6277;49.824;9.562;2024-02-14T02:25:30;2.83;;;1.30;;
12425;SDS011;6277;49.824;9.562;2024-02-14T02:27:55;3.47;;;1.80;;
12425;SDS011;6277;49.824;9.562;2024-02-14T02:30:24;2.63;;;1.50;;
12425;SDS011;6277;49.824;9.562;2024-02-14T02:32:50;4.15;;;1.38;;
12425;SDS011;6277;49.824;9.562;2024-02-14T02:35:16;3.88;;;1.40;;
12425;SDS011;6277;49.824;9.562;2024-02-14T02:37:45;2.60;;;1.30;;
12425;SDS011;6277;49.824;9.562;2024-02-14T02:40:12;2.28;;;1.40;;
12425;SDS011;6277;49.824;9.562;2024-02-14T02:42:38;1.85;;;1.27;;
12425;SDS011;6277;49.824;9.562;2024-02-14T02:45:03;3.38;;;1.73;;
12425;SDS011;6277;49.824;9.562;2024-02-14T02:47:30;2.55;;;1.25;;
12425;SDS011;6277;49.824;9.562;2024-02-14T02:49:59;1.45;;;1.10;;
12425;SDS011;6277;49.824;9.562;2024-02-14T02:52:27;2.35;;;1.23;;
12425;SDS011;6277;49.824;9.562;2024-02-14T02:54:53;2.65;;;1.30;;
12425;SDS011;6277;49.824;9.562;2024-02-14T02:57:19;2.65;;;1.15;;
12425;SDS011;6277;49.824;9.562;2024-02-14T02:59:44;2.42;;;1.08;;
12425;SDS011;6277;49.824;9.562;2024-02-14T03:02:12;2.80;;;1.35;;
12425;SDS011;6277;49.824;9.562;2024-02-14T03:04:39;1.83;;;1.10;;
12425;SDS011;6277;49.824;9.562;2024-02-14T03:07:04;2.50;;;1.25;;
12425;SDS011;6277;49.824;9.562;2024-02-14T03:09:33;1.98;;;1.23;;
12425;SDS011;6277;49.824;9.562;2024-02-14T03:12:02;2.15;;;1.20;;
12425;SDS011;6277;49.824;9.562;2024-02-14T03:14:29;1.50;;;1.20;;
12425;SDS011;6277;49.824;9.562;2024-02-14T03:16:57;2.95;;;1.40;;
12425;SDS011;6277;49.824;9.562;2024-02-14T03:19:26;2.10;;;1.35;;
12425;SDS011;6277;49.824;9.562;2024-02-14T03:21:55;3.53;;;1.42;;
12425;SDS011;6277;49.824;9.562;2024-02-14T03:24:21;3.25;;;1.38;;
12425;SDS011;6277;49.824;9.562;2024-02-14T03:26:47;1.20;;;1.00;;
12425;SDS011;6277;49.824;9.562;2024-02-14T03:29:16;1.45;;;1.10;;
12425;SDS011;6277;49.824;9.562;2024-02-14T03:31:41;1.80;;;1.10;;
12425;SDS011;6277;49.824;9.562;2024-02-14T03:34:09;2.03;;;1.50;;
12425;SDS011;6277;49.824;9.562;2024-02-14T03:36:36;2.97;;;1.60;;
12425;SDS011;6277;49.824;9.562;2024-02-14T03:39:02;2.03;;;1.20;;
12425;SDS011;6277;49.824;9.562;2024-02-14T03:41:29;2.95;;;1.38;;
12425;SDS011;6277;49.824;9.562;2024-02-14T03:43:55;2.60;;;1.75;;
12425;SDS011;6277;49.824;9.562;2024-02-14T03:46:23;2.10;;;1.40;;
12425;SDS011;6277;49.824;9.562;2024-02-14T03:48:49;2.17;;;1.15;;
12425;SDS011;6277;49.824;9.562;2024-02-14T03:51:14;2.20;;;1.45;;
12425;SDS011;6277;49.824;9.562;2024-02-14T03:53:41;1.30;;;1.20;;
12425;SDS011;6277;49.824;9.562;2024-02-14T03:56:06;2.03;;;1.20;;
12425;SDS011;6277;49.824;9.562;2024-02-14T03:58:32;2.30;;;1.40;;
12425;SDS011;6277;49.824;9.562;2024-02-14T04:01:02;4.20;;;1.35;;
12425;SDS011;6277;49.824;9.562;2024-02-14T04:03:28;3.90;;;1.38;;
12425;SDS011;6277;49.824;9.562;2024-02-14T04:05:54;2.15;;;1.40;;
12425;SDS011;6277;49.824;9.562;2024-02-14T04:08:19;2.58;;;1.42;;
12425;SDS011;6277;49.824;9.562;2024-02-14T04:10:45;2.75;;;1.50;;
12425;SDS011;6277;49.824;9.562;2024-02-14T04:13:11;1.63;;;1.20;;
12425;SDS011;6277;49.824;9.562;2024-02-14T04:15:36;2.72;;;1.60;;
12425;SDS011;6277;49.824;9.562;2024-02-14T04:18:02;6.82;;;3.13;;
12425;SDS011;6277;49.824;9.562;2024-02-14T04:20:31;3.63;;;2.15;;
12425;SDS011;6277;49.824;9.562;2024-02-14T04:22:56;3.50;;;2.25;;
12425;SDS011;6277;49.824;9.562;2024-02-14T04:25:23;2.58;;;2.05;;
12425;SDS011;6277;49.824;9.562;2024-02-14T04:27:49;3.58;;;1.98;;
12425;SDS011;6277;49.824;9.562;2024-02-14T04:30:14;4.40;;;1.92;;
12425;SDS011;6277;49.824;9.562;2024-02-14T04:32:40;2.08;;;1.40;;
12425;SDS011;6277;49.824;9.562;2024-02-14T04:35:05;2.50;;;1.50;;
12425;SDS011;6277;49.824;9.562;2024-02-14T04:37:31;2.22;;;1.45;;
12425;SDS011;6277;49.824;9.562;2024-02-14T04:39:58;2.17;;;1.40;;
12425;SDS011;6277;49.824;9.562;2024-02-14T04:42:24;4.13;;;1.83;;
12425;SDS011;6277;49.824;9.562;2024-02-14T04:44:50;3.55;;;1.70;;
12425;SDS011;6277;49.824;9.562;2024-02-14T04:47:15;2.70;;;1.52;;
12425;SDS011;6277;49.824;9.562;2024-02-14T04:49:41;3.55;;;1.50;;
12425;SDS011;6277;49.824;9.562;2024-02-14T04:52:06;2.63;;;1.75;;
12425;SDS011;6277;49.824;9.562;2024-02-14T04:54:32;3.50;;;1.88;;
12425;SDS011;6277;49.824;9.562;2024-02-14T04:56:58;2.65;;;1.92;;
12425;SDS011;6277;49.824;9.562;2024-02-14T04:59:23;3.20;;;1.80;;
12425;SDS011;6277;49.824;9.562;2024-02-14T05:01:49;3.33;;;1.98;;
12425;SDS011;6277;49.824;9.562;2024-02-14T05:04:16;3.22;;;1.77;;
12425;SDS011;6277;49.824;9.562;2024-02-14T05:06:42;2.15;;;1.42;;
12425;SDS011;6277;49.824;9.562;2024-02-14T05:09:08;3.33;;;1.67;;
12425;SDS011;6277;49.824;9.562;2024-02-14T05:11:36;2.97;;;1.80;;
12425;SDS011;6277;49.824;9.562;2024-02-14T05:14:01;3.13;;;1.50;;
12425;SDS011;6277;49.824;9.562;2024-02-14T05:16:27;2.95;;;1.77;;
12425;SDS011;6277;49.824;9.562;2024-02-14T05:18:52;3.30;;;1.50;;
12425;SDS011;6277;49.824;9.562;2024-02-14T05:21:21;3.75;;;1.63;;
12425;SDS011;6277;49.824;9.562;2024-02-14T05:23:47;3.50;;;1.70;;
12425;SDS011;6277;49.824;9.562;2024-02-14T05:26:13;2.85;;;1.73;;
12425;SDS011;6277;49.824;9.562;2024-02-14T05:28:38;3.38;;;1.85;;
12425;SDS011;6277;49.824;9.562;2024-02-14T05:31:05;2.75;;;1.35;;
12425;SDS011;6277;49.824;9.562;2024-02-14T05:33:30;3.25;;;1.40;;
12425;SDS011;6277;49.824;9.562;2024-02-14T05:35:56;2.28;;;1.35;;
12425;SDS011;6277;49.824;9.562;2024-02-14T05:38:22;5.20;;;1.52;;
12425;SDS011;6277;49.824;9.562;2024-02-14T05:40:48;4.40;;;1.38;;
12425;SDS011;6277;49.824;9.562;2024-02-14T05:43:14;2.35;;;1.35;;
12425;SDS011;6277;49.824;9.562;2024-02-14T05:45:40;3.80;;;1.75;;
12425;SDS011;6277;49.824;9.562;2024-02-14T05:48:07;3.78;;;1.88;;
12425;SDS011;6277;49.824;9.562;2024-02-14T05:50:32;3.83;;;2.08;;
12425;SDS011;6277;49.824;9.562;2024-02-14T05:52:58;3.67;;;1.75;;
12425;SDS011;6277;49.824;9.562;2024-02-14T05:55:24;3.22;;;1.73;;
12425;SDS011;6277;49.824;9.562;2024-02-14T05:57:50;3.15;;;1.83;;
12425;SDS011;6277;49.824;9.562;2024-02-14T06:00:17;2.60;;;1.40;;
12425;SDS011;6277;49.824;9.562;2024-02-14T06:02:44;2.35;;;1.58;;
12425;SDS011;6277;49.824;9.562;2024-02-14T06:05:09;3.35;;;1.50;;
12425;SDS011;6277;49.824;9.562;2024-02-14T06:07:36;3.15;;;1.63;;
12425;SDS011;6277;49.824;9.562;2024-02-14T06:10:02;5.35;;;1.60;;
12425;SDS011;6277;49.824;9.562;2024-02-14T06:12:27;2.88;;;1.20;;
12425;SDS011;6277;49.824;9.562;2024-02-14T06:14:54;2.95;;;1.40;;
12425;SDS011;6277;49.824;9.562;2024-02-14T06:17:20;2.03;;;1.30;;
12425;SDS011;6277;49.824;9.562;2024-02-14T06:19:46;3.72;;;1.40;;
12425;SDS011;6277;49.824;9.562;2024-02-14T06:22:11;2.65;;;1.45;;
12425;SDS011;6277;49.824;9.562;2024-02-14T06:24:37;3.33;;;1.55;;
12425;SDS011;6277;49.824;9.562;2024-02-14T06:27:02;3.67;;;1.45;;
12425;SDS011;6277;49.824;9.562;2024-02-14T06:29:28;3.47;;;1.20;;
12425;SDS011;6277;49.824;9.562;2024-02-14T06:31:54;3.22;;;1.63;;
12425;SDS011;6277;49.824;9.562;2024-02-14T06:34:19;3.08;;;1.23;;
12425;SDS011;6277;49.824;9.562;2024-02-14T06:36:48;1.73;;;1.40;;
12425;SDS011;6277;49.824;9.562;2024-02-14T06:39:13;2.58;;;1.33;;
12425;SDS011;6277;49.824;9.562;2024-02-14T06:41:39;2.17;;;1.30;;
12425;SDS011;6277;49.824;9.562;2024-02-14T06:44:05;3.08;;;1.05;;
12425;SDS011;6277;49.824;9.562;2024-02-14T06:46:31;3.33;;;1.70;;
12425;SDS011;6277;49.824;9.562;2024-02-14T06:48:56;3.22;;;1.85;;
12425;SDS011;6277;49.824;9.562;2024-02-14T06:51:22;4.47;;;1.60;;
12425;SDS011;6277;49.824;9.562;2024-02-14T06:53:49;4.43;;;1.65;;
12425;SDS011;6277;49.824;9.562;2024-02-14T06:56:15;1.60;;;1.20;;
12425;SDS011;6277;49.824;9.562;2024-02-14T06:58:41;1.85;;;1.48;;
12425;SDS011;6277;49.824;9.562;2024-02-14T07:01:07;3.55;;;1.45;;
12425;SDS011;6277;49.824;9.562;2024-02-14T07:03:32;3.92;;;1.33;;
12425;SDS011;6277;49.824;9.562;2024-02-14T07:05:58;3.17;;;1.40;;
12425;SDS011;6277;49.824;9.562;2024-02-14T07:08:24;2.28;;;1.50;;
12425;SDS011;6277;49.824;9.562;2024-02-14T07:10:53;3.67;;;1.40;;
12425;SDS011;6277;49.824;9.562;2024-02-14T07:13:19;2.53;;;1.27;;
12425;SDS011;6277;49.824;9.562;2024-02-14T07:15:45;3.25;;;1.23;;
12425;SDS011;6277;49.824;9.562;2024-02-14T07:18:10;2.35;;;1.17;;
12425;SDS011;6277;49.824;9.562;2024-02-14T07:20:36;2.10;;;0.77;;
12425;SDS011;6277;49.824;9.562;2024-02-14T07:23:01;3.25;;;1.00;;
12425;SDS011;6277;49.824;9.562;2024-02-14T07:25:28;1.85;;;0.80;;
12425;SDS011;6277;49.824;9.562;2024-02-14T07:27:53;4.72;;;1.00;;
12425;SDS011;6277;49.824;9.562;2024-02-14T07:30:19;3.35;;;1.20;;
12425;SDS011;6277;49.824;9.562;2024-02-14T07:32:44;2.53;;;1.17;;
12425;SDS011;6277;49.824;9.562;2024-02-14T07:35:10;4.15;;;1.10;;
12425;SDS011;6277;49.824;9.562;2024-02-14T07:37:38;2.10;;;0.90;;
12425;SDS011;6277;49.824;9.562;2024-02-14T07:40:04;2.42;;;1.10;;
12425;SDS011;6277;49.824;9.562;2024-02-14T07:42:30;3.60;;;1.20;;
12425;SDS011;6277;49.824;9.562;2024-02-14T07:44:56;2.35;;;0.70;;
12425;SDS011;6277;49.824;9.562;2024-02-14T07:47:22;2.25;;;0.98;;
12425;SDS011;6277;49.824;9.562;2024-02-14T07:49:47;3.35;;;1.02;;
12425;SDS011;6277;49.824;9.562;2024-02-14T07:52:13;2.67;;;1.02;;
12425;SDS011;6277;49.824;9.562;2024-02-14T07:54:39;3.50;;;0.95;;
12425;SDS011;6277;49.824;9.562;2024-02-14T07:57:04;2.45;;;1.20;;
12425;SDS011;6277;49.824;9.562;2024-02-14T07:59:30;2.08;;;1.10;;
12425;SDS011;6277;49.824;9.562;2024-02-14T08:01:56;2.42;;;1.25;;
12425;SDS011;6277;49.824;9.562;2024-02-14T08:04:22;2.13;;;0.90;;
12425;SDS011;6277;49.824;9.562;2024-02-14T08:06:47;2.10;;;0.82;;
12425;SDS011;6277;49.824;9.562;2024-02-14T08:09:16;1.83;;;0.90;;
12425;SDS011;6277;49.824;9.562;2024-02-14T08:11:41;2.10;;;0.88;;
12425;SDS011;6277;49.824;9.562;2024-02-14T08:14:07;2.40;;;0.85;;
12425;SDS011;6277;49.824;9.562;2024-02-14T08:16:33;3.15;;;1.05;;
12425;SDS011;6277;49.824;9.562;2024-02-14T08:18:58;2.33;;;1.10;;
12425;SDS011;6277;49.824;9.562;2024-02-14T08:21:25;3.55;;;1.10;;
12425;SDS011;6277;49.824;9.562;2024-02-14T08:23:51;3.17;;;0.90;;
12425;SDS011;6277;49.824;9.562;2024-02-14T08:26:17;2.97;;;0.80;;
12425;SDS011;6277;49.824;9.562;2024-02-14T08:28:43;1.73;;;0.90;;
12425;SDS011;6277;49.824;9.562;2024-02-14T08:31:11;2.80;;;0.90;;
12425;SDS011;6277;49.824;9.562;2024-02-14T08:33:37;1.88;;;0.80;;
12425;SDS011;6277;49.824;9.562;2024-02-14T08:36:03;2.25;;;0.80;;
12425;SDS011;6277;49.824;9.562;2024-02-14T08:38:29;1.88;;;0.82;;
12425;SDS011;6277;49.824;9.562;2024-02-14T08:40:55;1.88;;;0.90;;
12425;SDS011;6277;49.824;9.562;2024-02-14T08:43:21;1.13;;;0.77;;
12425;SDS011;6277;49.824;9.562;2024-02-14T08:45:49;1.58;;;0.82;;
12425;SDS011;6277;49.824;9.562;2024-02-14T08:48:16;2.38;;;0.68;;
12425;SDS011;6277;49.824;9.562;2024-02-14T08:50:42;3.05;;;0.88;;
12425;SDS011;6277;49.824;9.562;2024-02-14T08:53:08;2.58;;;0.90;;
12425;SDS011;6277;49.824;9.562;2024-02-14T08:55:34;1.92;;;0.80;;
12425;SDS011;6277;49.824;9.562;2024-02-14T08:58:01;1.30;;;0.90;;
12425;SDS011;6277;49.824;9.562;2024-02-14T09:00:27;1.80;;;0.80;;
12425;SDS011;6277;49.824;9.562;2024-02-14T09:02:52;1.65;;;0.90;;
12425;SDS011;6277;49.824;9.562;2024-02-14T09:05:18;1.15;;;0.90;;
12425;SDS011;6277;49.824;9.562;2024-02-14T09:07:44;2.25;;;0.75;;
12425;SDS011;6277;49.824;9.562;2024-02-14T09:10:10;1.65;;;0.85;;
12425;SDS011;6277;49.824;9.562;2024-02-14T09:12:37;2.00;;;0.60;;
12425;SDS011;6277;49.824;9.562;2024-02-14T09:15:03;1.25;;;0.60;;
12425;SDS011;6277;49.824;9.562;2024-02-14T09:17:30;1.45;;;0.70;;
12425;SDS011;6277;49.824;9.562;2024-02-14T09:19:55;0.80;;;0.60;;
12425;SDS011;6277;49.824;9.562;2024-02-14T09:22:21;1.90;;;0.80;;
12425;SDS011;6277;49.824;9.562;2024-02-14T09:24:47;1.65;;;0.70;;
12425;SDS011;6277;49.824;9.562;2024-02-14T09:27:13;1.55;;;0.70;;
12425;SDS011;6277;49.824;9.562;2024-02-14T09:29:39;0.95;;;0.52;;
12425;SDS011;6277;49.824;9.562;2024-02-14T09:32:05;2.10;;;0.80;;
12425;SDS011;6277;49.824;9.562;2024-02-14T09:34:30;1.92;;;0.82;;
12425;SDS011;6277;49.824;9.562;2024-02-14T09:36:56;2.45;;;0.70;;
12425;SDS011;6277;49.824;9.562;2024-02-14T09:39:23;0.70;;;0.60;;
12425;SDS011;6277;49.824;9.562;2024-02-14T09:41:52;1.17;;;0.60;;
12425;SDS011;6277;49.824;9.562;2024-02-14T09:44:24;1.73;;;0.60;;
12425;SDS011;6277;49.824;9.562;2024-02-14T09:46:53;1.25;;;0.55;;
12425;SDS011;6277;49.824;9.562;2024-02-14T09:49:20;1.25;;;0.60;;
12425;SDS011;6277;49.824;9.562;2024-02-14T09:51:46;1.13;;;0.65;;
12425;SDS011;6277;49.824;9.562;2024-02-14T09:54:14;1.50;;;0.70;;
12425;SDS011;6277;49.824;9.562;2024-02-14T09:56:40;1.23;;;0.52;;
12425;SDS011;6277;49.824;9.562;2024-02-14T09:59:06;2.10;;;0.50;;
12425;SDS011;6277;49.824;9.562;2024-02-14T10:01:32;1.27;;;0.70;;
12425;SDS011;6277;49.824;9.562;2024-02-14T10:03:58;1.55;;;0.70;;
12425;SDS011;6277;49.824;9.562;2024-02-14T10:06:23;1.08;;;0.73;;
12425;SDS011;6277;49.824;9.562;2024-02-14T10:08:50;1.67;;;0.80;;
12425;SDS011;6277;49.824;9.562;2024-02-14T10:11:16;0.90;;;0.65;;
12425;SDS011;6277;49.824;9.562;2024-02-14T10:13:46;1.83;;;0.70;;
12425;SDS011;6277;49.824;9.562;2024-02-14T10:16:13;1.73;;;0.70;;
12425;SDS011;6277;49.824;9.562;2024-02-14T10:18:39;1.30;;;0.60;;
12425;SDS011;6277;49.824;9.562;2024-02-14T10:21:05;1.20;;;0.60;;
12425;SDS011;6277;49.824;9.562;2024-02-14T10:23:30;1.10;;;0.68;;
12425;SDS011;6277;49.824;9.562;2024-02-14T10:25:57;1.30;;;0.90;;
12425;SDS011;6277;49.824;9.562;2024-02-14T10:28:23;1.63;;;0.60;;
12425;SDS011;6277;49.824;9.562;2024-02-14T10:30:49;2.38;;;0.88;;
12425;SDS011;6277;49.824;9.562;2024-02-14T10:33:15;2.17;;;0.90;;
12425;SDS011;6277;49.824;9.562;2024-02-14T10:35:41;2.00;;;0.85;;
12425;SDS011;6277;49.824;9.562;2024-02-14T10:38:08;1.25;;;0.60;;
12425;SDS011;6277;49.824;9.562;2024-02-14T10:40:34;2.25;;;0.88;;
12425;SDS011;6277;49.824;9.562;2024-02-14T10:43:03;1.35;;;0.60;;
12425;SDS011;6277;49.824;9.562;2024-02-14T10:45:30;1.40;;;0.80;;
12425;SDS011;6277;49.824;9.562;2024-02-14T10:47:56;1.67;;;0.60;;
12425;SDS011;6277;49.824;9.562;2024-02-14T10:50:25;1.17;;;0.75;;
12425;SDS011;6277;49.824;9.562;2024-02-14T10:52:57;0.70;;;0.57;;
12425;SDS011;6277;49.824;9.562;2024-02-14T10:55:25;1.13;;;0.65;;
12425;SDS011;6277;49.824;9.562;2024-02-14T10:57:55;1.35;;;0.60;;
12425;SDS011;6277;49.824;9.562;2024-02-14T11:00:23;0.60;;;0.57;;
12425;SDS011;6277;49.824;9.562;2024-02-14T11:02:49;1.13;;;0.65;;
12425;SDS011;6277;49.824;9.562;2024-02-14T11:05:18;2.22;;;0.77;;
12425;SDS011;6277;49.824;9.562;2024-02-14T11:07:47;1.98;;;0.80;;
12425;SDS011;6277;49.824;9.562;2024-02-14T11:10:14;1.10;;;0.52;;
12425;SDS011;6277;49.824;9.562;2024-02-14T11:12:41;1.52;;;0.60;;
12425;SDS011;6277;49.824;9.562;2024-02-14T11:15:17;1.42;;;0.60;;
12425;SDS011;6277;49.824;9.562;2024-02-14T11:17:44;1.58;;;0.60;;
12425;SDS011;6277;49.824;9.562;2024-02-14T11:20:11;1.17;;;0.52;;
12425;SDS011;6277;49.824;9.562;2024-02-14T11:22:50;2.60;;;0.80;;
12425;SDS011;6277;49.824;9.562;2024-02-14T11:25:36;0.70;;;0.60;;
12425;SDS011;6277;49.824;9.562;2024-02-14T11:28:15;2.45;;;0.70;;
12425;SDS011;6277;49.824;9.562;2024-02-14T11:30:44;0.77;;;0.50;;
12425;SDS011;6277;49.824;9.562;2024-02-14T11:33:23;0.80;;;0.63;;
12425;SDS011;6277;49.824;9.562;2024-02-14T11:35:52;0.65;;;0.40;;
12425;SDS011;6277;49.824;9.562;2024-02-14T11:38:22;0.60;;;0.50;;
12425;SDS011;6277;49.824;9.562;2024-02-14T11:40:51;0.60;;;0.30;;
12425;SDS011;6277;49.824;9.562;2024-02-14T11:43:19;1.08;;;0.50;;
12425;SDS011;6277;49.824;9.562;2024-02-14T11:45:46;1.60;;;0.55;;
12425;SDS011;6277;49.824;9.562;2024-02-14T11:48:14;0.52;;;0.47;;
12425;SDS011;6277;49.824;9.562;2024-02-14T11:50:41;0.52;;;0.50;;
12425;SDS011;6277;49.824;9.562;2024-02-14T11:53:09;0.88;;;0.70;;
12425;SDS011;6277;49.824;9.562;2024-02-14T11:55:36;0.55;;;0.40;;
12425;SDS011;6277;49.824;9.562;2024-02-14T11:58:06;0.45;;;0.40;;
12425;SDS011;6277;49.824;9.562;2024-02-14T12:00:44;0.80;;;0.57;;
12425;SDS011;6277;49.824;9.562;2024-02-14T12:03:21;0.40;;;0.40;;
12425;SDS011;6277;49.824;9.562;2024-02-14T12:05:49;0.60;;;0.50;;
12425;SDS011;6277;49.824;9.562;2024-02-14T12:08:16;0.63;;;0.40;;
12425;SDS011;6277;49.824;9.562;2024-02-14T12:10:43;0.50;;;0.40;;
12425;SDS011;6277;49.824;9.562;2024-02-14T12:13:12;0.77;;;0.47;;
12425;SDS011;6277;49.824;9.562;2024-02-14T12:18:05;0.73;;;0.50;;
12425;SDS011;6277;49.824;9.562;2024-02-14T12:20:31;1.20;;;0.60;;
12425;SDS011;6277;49.824;9.562;2024-02-14T12:22:58;1.25;;;0.60;;
12425;SDS011;6277;49.824;9.562;2024-02-14T12:25:24;1.10;;;0.70;;
12425;SDS011;6277;49.824;9.562;2024-02-14T12:27:51;0.70;;;0.38;;
12425;SDS011;6277;49.824;9.562;2024-02-14T12:30:18;1.02;;;0.50;;
12425;SDS011;6277;49.824;9.562;2024-02-14T12:33:00;1.98;;;0.60;;
12425;SDS011;6277;49.824;9.562;2024-02-14T12:35:33;1.10;;;0.60;;
12425;SDS011;6277;49.824;9.562;2024-02-14T12:38:00;0.98;;;0.60;;
12425;SDS011;6277;49.824;9.562;2024-02-14T12:40:26;1.02;;;0.50;;
12425;SDS011;6277;49.824;9.562;2024-02-14T12:42:53;1.70;;;0.55;;
12425;SDS011;6277;49.824;9.562;2024-02-14T12:45:19;1.20;;;0.90;;
12425;SDS011;6277;49.824;9.562;2024-02-14T12:47:44;1.33;;;0.57;;
12425;SDS011;6277;49.824;9.562;2024-02-14T12:50:10;1.15;;;0.60;;
12425;SDS011;6277;49.824;9.562;2024-02-14T12:52:35;1.48;;;0.80;;
12425;SDS011;6277;49.824;9.562;2024-02-14T12:55:02;1.25;;;0.75;;
12425;SDS011;6277;49.824;9.562;2024-02-14T12:57:28;0.75;;;0.60;;
12425;SDS011;6277;49.824;9.562;2024-02-14T12:59:53;1.40;;;0.65;;
12425;SDS011;6277;49.824;9.562;2024-02-14T13:02:19;0.88;;;0.60;;
12425;SDS011;6277;49.824;9.562;2024-02-14T13:04:45;1.27;;;0.68;;
12425;SDS011;6277;49.824;9.562;2024-02-14T13:07:11;1.52;;;0.70;;
12425;SDS011;6277;49.824;9.562;2024-02-14T13:09:36;1.88;;;0.80;;
12425;SDS011;6277;49.824;9.562;2024-02-14T13:12:03;2.50;;;0.75;;
12425;SDS011;6277;49.824;9.562;2024-02-14T13:14:31;1.48;;;0.85;;
12425;SDS011;6277;49.824;9.562;2024-02-14T13:16:58;1.80;;;0.80;;
12425;SDS011;6277;49.824;9.562;2024-02-14T13:19:23;3.65;;;1.02;;
12425;SDS011;6277;49.824;9.562;2024-02-14T13:21:49;1.88;;;0.93;;
12425;SDS011;6277;49.824;9.562;2024-02-14T13:24:14;2.63;;;0.85;;
12425;SDS011;6277;49.824;9.562;2024-02-14T13:26:40;3.35;;;0.98;;
12425;SDS011;6277;49.824;9.562;2024-02-14T13:29:05;1.58;;;0.80;;
12425;SDS011;6277;49.824;9.562;2024-02-14T13:31:32;1.38;;;0.80;;
12425;SDS011;6277;49.824;9.562;2024-02-14T13:33:57;2.28;;;0.95;;
12425;SDS011;6277;49.824;9.562;2024-02-14T13:36:23;1.58;;;0.80;;
12425;SDS011;6277;49.824;9.562;2024-02-14T13:38:49;1.40;;;0.70;;
12425;SDS011;6277;49.824;9.562;2024-02-14T13:41:14;1.58;;;0.80;;
12425;SDS011;6277;49.824;9.562;2024-02-14T13:43:40;1.90;;;0.82;;
12425;SDS011;6277;49.824;9.562;2024-02-14T13:46:06;1.10;;;0.80;;
12425;SDS011;6277;49.824;9.562;2024-02-14T13:48:34;2.40;;;0.75;;
12425;SDS011;6277;49.824;9.562;2024-02-14T13:51:00;1.33;;;0.70;;
12425;SDS011;6277;49.824;9.562;2024-02-14T13:53:27;1.02;;;0.80;;
12425;SDS011;6277;49.824;9.562;2024-02-14T13:55:52;1.38;;;0.90;;
12425;SDS011;6277;49.824;9.562;2024-02-14T13:58:18;0.82;;;0.70;;
12425;SDS011;6277;49.824;9.562;2024-02-14T14:00:44;1.08;;;0.65;;
12425;SDS011;6277;49.824;9.562;2024-02-14T14:03:10;2.28;;;0.70;;
12425;SDS011;6277;49.824;9.562;2024-02-14T14:05:36;1.27;;;0.80;;
12425;SDS011;6277;49.824;9.562;2024-02-14T14:08:02;1.85;;;0.88;;
12425;SDS011;6277;49.824;9.562;2024-02-14T14:10:28;1.67;;;0.90;;
12425;SDS011;6277;49.824;9.562;2024-02-14T14:12:54;1.70;;;0.85;;
12425;SDS011;6277;49.824;9.562;2024-02-14T14:15:20;0.77;;;0.75;;
12425;SDS011;6277;49.824;9.562;2024-02-14T14:17:47;1.05;;;0.70;;
12425;SDS011;6277;49.824;9.562;2024-02-14T14:20:13;1.45;;;0.80;;
12425;SDS011;6277;49.824;9.562;2024-02-14T14:22:39;1.65;;;0.80;;
12425;SDS011;6277;49.824;9.562;2024-02-14T14:25:04;0.68;;;0.65;;
12425;SDS011;6277;49.824;9.562;2024-02-14T14:27:33;1.65;;;0.90;;
12425;SDS011;6277;49.824;9.562;2024-02-14T14:29:58;1.40;;;0.80;;
12425;SDS011;6277;49.824;9.562;2024-02-14T14:32:24;2.85;;;0.90;;
12425;SDS011;6277;49.824;9.562;2024-02-14T14:34:50;1.10;;;0.80;;
12425;SDS011;6277;49.824;9.562;2024-02-14T14:37:15;1.35;;;0.85;;
12425;SDS011;6277;49.824;9.562;2024-02-14T14:39:41;1.05;;;0.70;;
12425;SDS011;6277;49.824;9.562;2024-02-14T14:42:06;1.90;;;0.90;;
12425;SDS011;6277;49.824;9.562;2024-02-14T14:44:33;1.40;;;0.70;;
12425;SDS011;6277;49.824;9.562;2024-02-14T14:46:59;1.98;;;0.90;;
12425;SDS011;6277;49.824;9.562;2024-02-14T14:49:25;2.15;;;0.90;;
12425;SDS011;6277;49.824;9.562;2024-02-14T14:51:51;1.33;;;0.80;;
12425;SDS011;6277;49.824;9.562;2024-02-14T14:54:16;2.85;;;1.30;;
12425;SDS011;6277;49.824;9.562;2024-02-14T14:56:42;2.13;;;0.73;;
12425;SDS011;6277;49.824;9.562;2024-02-14T14:59:08;1.55;;;0.75;;